National Weather Service United States Department of Commerce

Heavy Rainfall and Flash Flood Threats From the Lower Mississippi Valley Into Ohio/Tennessee Valleys; Elevated to Critical Fire Concerns Out West

Heavy to excessive rainfall with flash flood concerns will be possible from the Lower Mississippi Valley into parts of the Ohio/Tennessee Valleys. Elevated to Critical Fire weather threats will persist across the Great Basin and central Rockies. Finally, Major to Record river flooding will continue in portions of the Midwest and across parts of North and South Carolina. Read More >

Aviation Forecast Discussion

.AVIATION /01Z SUNDAY THROUGH THURSDAY/...
The following discussion is for KPHL, KPNE, KTTN, KABE, KRDG, 
KILG, KMIV, KACY and surrounding areas.

Tonight...Cloudy with VFR ceilings. Northeast wind 8 knots or 
less.

Sunday...Rain is forecast to overspread KPHL, KPNE, KILG, KMIV 
and KACY between 10Z and 12Z with conditions lowering to MVFR 
between 12Z and 14Z. MVFR conditions are expected at and around 
those 5 TAF sites through the day.

The area of rain should brush KRDG and KTTN. However, both 
locations are expected to drop to MVFR for much of the day.

VFR ceilings are anticipated for KABE with little or no rain 
there.

The wind should favor the northeast around 4 to 8 knots. 

OUTLOOK... 
Sunday night...MVFR conditions early may improve to VFR 
overnight. Chance of showers across southern New Jersey, 
southern Delaware, and Maryland. Northeast wind 5-10 knots.

Monday...Generally VFR conditions early, although some MVFR 
ceilings may develop during the day. Chance of showers later in 
the day, mainly for southern New Jersey and southern Delaware 
and Maryland. East winds around 10 to 15 knots may gust 15-20 
knots.

Monday night-Tuesday...MVFR conditions expected, and may lower 
to IFR. Showers likely, and with possible thunderstorms Tuesday.
Some improvement possible later on Tuesday East winds 5-10 
knots Monday night, become southeast Tuesday. Gusts 15-20 knots 
possible.

Tuesday night... VFR conditions possible in the evening, but 
fog and/or stratus may develop overnight. South-southwest winds 
5-10 knots.

Wednesday...Cold front expected with a chance showers and 
thunderstorms which will lead to MVFR or IFR conditions. 
Southwest winds around 10 knots, gusting 15-20 knots during the 
day.

Wednesday night...Cold front passes eastward with rain ending 
and improving conditions behind the front. Winds shift to the 
west then northwest overnight.

Thursday...Forecast is uncertain for Thursday. VFR forecast to 
begin the day, but showers may develop and lead to lower 
conditions.

&&

Latest PHL Terminal Aerodrome Forecast (TAF)

FTNA35 KPHL 222332 RRG
KPHL 222329Z 2300/2406 02008KT P6SM BKN100
     FM231000 03006KT P6SM -RA OVC040
     FM231300 04008KT 5SM -RA BR OVC025
     FM231600 05006KT 5SM -RA BR OVC015
     FM232100 07004KT P6SM BKN015

Latest Area Terminal Aerodrome Forecasts (TAFs)

FTUS80 KPNE 222330 RRC
KPNE 222329Z 2300/2324 02004KT P6SM BKN100
     FM231100 03004KT P6SM -RA OVC040
     FM231300 05006KT 5SM -RA BR OVC025
     FM231600 05006KT 5SM -RA BR OVC015
     FM232000 08004KT P6SM BKN015

FTUS80 KTTN 222330 RRD
KTTN 222329Z 2300/2324 02004KT P6SM BKN100
     FM231100 03004KT P6SM OVC040
     FM231300 06004KT P6SM -RA OVC025
     FM231800 08004KT P6SM BKN025

FTUS80 KILG 222330 RRA
KILG 222329Z 2300/2324 02006KT P6SM BKN100
     FM231000 03006KT P6SM -RA OVC040
     FM231300 03008KT 4SM -RA BR OVC025
     FM231600 04006KT 4SM -RA BR OVC015
     FM232200 06004KT P6SM BKN015

FTUS80 KRDG 222330 RRC
KRDG 222329Z 2300/2324 VRB03KT P6SM BKN100
     FM231000 VRB03KT P6SM OVC040
      TEMPO 2312/2314 -SHRA
     FM231400 VRB03KT P6SM -SHRA OVC025
     FM231600 VRB03KT P6SM OVC025
     FM232200 VRB03KT P6SM BKN035

FTUS80 KABE 222330
KABE 222329Z 2300/2324 VRB03KT P6SM BKN100
     FM231300 VRB03KT P6SM OVC040

FTNA35 KACY 222332 RRG
KACY 222329Z 2300/2324 03008KT P6SM BKN100
     FM231100 04006KT P6SM -RA OVC040
     FM231400 05008KT 4SM -RA BR OVC025
     FM231600 07008KT 4SM -RA BR OVC015
     FM232300 07006KT P6SM BKN015

FTUS51 KMIV 222330
KMIV 222329Z 2300/2324 03006KT P6SM BKN100
     FM231000 04006KT P6SM -RA OVC040
     FM231300 04006KT 4SM -RA BR OVC025
     FM231600 06006KT 4SM -RA BR OVC015
     FM232300 06006KT P6SM BKN015

FTUS80 KEWR 230212 AAA
KEWR 230210Z 2302/2406 02008KT P6SM FEW040 BKN200
     FM230700 04005KT P6SM SCT040 BKN200
      TEMPO 2311/2313 BKN040
     FM231300 06006KT P6SM VCSH BKN040 BKN200
     FM231600 09006KT P6SM BKN035
     FM232100 13006KT P6SM BKN035
     FM240200 05004KT P6SM SCT035 SCT250

FTUS80 KLGA 230212 AAB
KLGA 230210Z 2302/2406 04006KT P6SM SCT040 BKN200
      TEMPO 2311/2313 BKN040
     FM231300 06007KT P6SM BKN040 BKN200
     FM231600 07007KT P6SM BKN035
     FM232300 12004KT P6SM BKN035
     FM240200 06004KT P6SM SCT035 SCT250

FTNA35 KJFK 230216 RRA
KJFK 230210Z 2302/2406 02008KT P6SM BKN200
     FM230700 05006KT P6SM SCT040 BKN200
     TEMPO 2311/2313 BKN040
     FM231300 08007KT P6SM BKN040 BKN200
     FM231600 14008KT P6SM BKN035
     FM232200 15004KT P6SM BKN035
     FM240200 04004KT P6SM SCT035 SCT250

FTUS80 KMDT 222330 RRB
KMDT 222327Z 2300/2324 36006KT P6SM VCSH BKN120
     FM230100 VRB03KT P6SM BKN120
     FM231100 10002KT 5SM -SHRA BR BKN015 OVC025
     FM232100 12005KT P6SM SCT035 BKN100

FTUS80 KBWI 222324
KBWI 222322Z 2300/2406 03008KT P6SM OVC110
     FM230400 03004KT P6SM OVC100
     FM231200 04005KT P6SM -RA OVC050
     FM231500 04005KT 4SM -RA OVC040
     FM240300 06006KT P6SM OVC020

FTUS80 KIAD 222324 RRC
KIAD 222322Z 2300/2406 01008KT P6SM BKN080
     FM230500 01004KT P6SM OVC060
     FM230800 36005KT P6SM -RA OVC045
     FM231200 02004KT 5SM -RA OVC030
     FM231800 03004KT 4SM -RA OVC015

FTUS51 KDCA 222324
KDCA 222322Z 2300/2406 02010KT P6SM OVC080
     FM230800 01005KT P6SM -RA OVC045
     FM231200 03006KT P6SM -RA OVC030
     FM232000 04006KT 4SM -RA OVC015

Raw METAR for Philadelphia International Airport

METAR KPHL 230254Z 05005KT 10SM FEW045 BKN150 BKN250 17/12 A3020 RMK AO2
     SLP227 T01720117 50009 $

Raw METAR for Northeast Philadelphia Regional Airport

METAR KPNE 230254Z AUTO 03005KT 10SM BKN045 18/13 A3021 RMK AO2 SLP230
     T01780128 51007

Raw METAR for Trenton/Mercer County Airport

METAR KTTN 230253Z 35004KT 10SM CLR 16/13 A3020 RMK AO2 SLP219 T01610128
     51012

Raw METAR for Wilmington/New Castle County Airport

METAR KILG 230251Z 33005KT 10SM CLR 16/13 A3021 RMK AO2 SLP229 T01560128
     51009

Raw METAR for Wings Field Airport

METAR KLOM 230255Z AUTO 00000KT 10SM CLR 13/13 A3023 RMK AO1

Raw METAR for Doylestown Airport

METAR KDYL 230254Z AUTO 01003KT 10SM CLR 15/13 A3021 RMK AO2 SLP226
     T01500133 51008

Raw METAR for Coatesville/Chester County Airport

METAR KMQS 230255Z AUTO 02003KT 10SM CLR 14/12 A3022 RMK AO2

Raw METAR for Mount Holly/South Jersey Regional Airport

METAR KVAY 230254Z AUTO 00000KT 10SM CLR 16/14 A3019 RMK AO2 SLP223
     T01610144 50002

PHL Vertical Wind Profile Forecast

PHL VWP

KDIX Radar Loop

KDIX Radar

KDOX Radar Loop

KDIX Radar

Visible Satellite

Visible ImageVisible Loop

Infrared Satellite

Infrared ImageInfrared Loop

ZNY Briefing

ZNY Briefing

ZNY SWAP Statement

ZNY SWAP Statement

KPHL Wind Speed Outlook

KPHL Wind Outlook

KPHL Icing Outlook

KPHL Icing  Outlook

KPHL Compression Outlook

KPHL Compression Outlook

ZNY Day 1 SWAP

KPHL Day 1 SWAP

ZNY Day 2 SWAP

KPHL Day 2 SWAP

Turbulence PIREPs

Turbulence PIREPs

Icing PIREPs

Icing PIREPs

Weather/Sky PIREPs

Weather/Sky PIREPs

Current AIRMETs/SIGMETs

Current AIRMETs/SIGMETs

Sierra (Mountains/IFR) AIRMETs

Current 3-hr Forecast 6-hr Forecast

No Plot Available

No Plot Available

No Plot Available

9-hr Forecast 12-hr Forecast

No Plot Available

No Plot Available

Tango (Turbulence/LLWS) AIRMETs

Current 3-hr Forecast 6-hr Forecast

No Plot Available

No Plot Available

No Plot Available

9-hr Forecast 12-hr Forecast

No Plot Available

No Plot Available

Icing AIRMETs

Current 3-hr Forecast 6-hr Forecast

No Plot Available

No Plot Available

No Plot Available

9-hr Forecast 12-hr Forecast

No Plot Available

No Plot Available

Freezing Level AIRMETs

Current 3-hr Forecast 6-hr Forecast

No Plot Available

No Plot Available

No Plot Available

9-hr Forecast 12-hr Forecast

No Plot Available

No Plot Available